Time;durP1;ratioP1;P1;durP2;ratioP2;P2;SDS_P1;SDS_P2;PMS_P1;PMS_P2;Temp;Humidity;BMP_temperature;BMP_pressure;BME280_temperature;BME280_humidity;BME280_pressure;Samples;Min_cycle;Max_cycle;Signal;HPM_P1;HPM_P2
2022/06/16 05:12:53;;;;;;;3.40;2.80;;;15.30;1.00;;;;;;6204732;23;20166;-85
2022/06/16 05:15:22;;;;;;;4.00;2.50;;;15.50;1.00;;;;;;5055662;28;20190;-87
2022/06/16 05:17:47;;;;;;;3.42;2.90;;;15.60;1.00;;;;;;5034738;28;20552;-88
2022/06/16 05:20:13;;;;;;;4.38;2.42;;;15.60;99.90;;;;;;5034221;28;20178;-87
2022/06/16 06:45:30;;;;;;;5.50;3.10;;;19.80;1.00;;;;;;5178433;23;20241;-85
2022/06/16 06:47:59;;;;;;;4.25;3.05;;;19.80;77.90;;;;;;5053676;28;20209;-86
2022/06/16 06:50:29;;;;;;;3.25;2.95;;;20.00;1.00;;;;;;5036022;28;20182;-86
2022/06/16 06:52:55;;;;;;;3.35;3.03;;;20.50;1.00;;;;;;5035673;28;20179;-87
2022/06/16 06:55:21;;;;;;;3.47;2.97;;;21.00;1.00;;;;;;5036178;28;20198;-87
2022/06/16 06:57:49;;;;;;;5.68;3.33;;;21.40;1.00;;;;;;5036486;28;20655;-85
2022/06/16 07:00:20;;;;;;;4.85;3.03;;;;;;;;;;5053562;28;20182;-86
2022/06/16 07:02:45;;;;;;;3.42;2.70;;;21.40;99.90;;;;;;5053956;28;20178;-86
2022/06/16 07:05:30;;;;;;;3.33;2.53;;;;;;;;;;5053538;28;20194;-85
2022/06/16 07:08:11;;;;;;;2.40;2.20;;;20.90;1.00;;;;;;5035619;28;20208;-84
2022/06/16 07:10:52;;;;;;;2.63;2.20;;;;;;;;;;5053786;28;20182;-87
2022/06/16 07:13:41;;;;;;;3.00;2.17;;;22.50;99.90;;;;;;5035505;28;20220;-86
2022/06/16 07:16:29;;;;;;;2.80;2.20;;;24.70;99.90;;;;;;5016924;28;20278;-86
2022/06/16 07:19:10;;;;;;;3.92;2.70;;;;;;;;;;5035510;28;20214;-86
2022/06/16 07:21:53;;;;;;;2.50;2.25;;;26.30;23.20;;;;;;5053033;28;20195;-86
2022/06/16 07:24:29;;;;;;;5.53;2.60;;;28.00;1.00;;;;;;5035654;28;20566;-86
2022/06/16 07:27:35;;;;;;;3.53;2.42;;;27.20;1.00;;;;;;5034899;28;20213;-86
2022/06/16 07:30:19;;;;;;;3.22;2.40;;;;;;;;;;5035096;28;20212;-86
2022/06/16 07:32:48;;;;;;;4.63;2.63;;;;;;;;;;5035292;28;20170;-86
2022/06/16 07:35:15;;;;;;;3.65;2.55;;;;;;;;;;5035076;28;20710;-86
2022/06/16 07:37:59;;;;;;;3.10;2.20;;;27.00;1.00;;;;;;5035186;28;20186;-86
2022/06/16 07:40:25;;;;;;;3.85;2.40;;;23.20;1.00;;;;;;5035061;28;20189;-84
2022/06/16 07:43:00;;;;;;;4.70;2.55;;;23.20;1.00;;;;;;5034980;28;20175;-86
2022/06/16 07:46:09;;;;;;;3.47;2.35;;;22.20;1.00;;;;;;5034753;28;20241;-86
2022/06/16 07:48:44;;;;;;;3.90;2.35;;;22.00;5.70;;;;;;5035080;28;20215;-86
2022/06/16 07:51:13;;;;;;;2.55;2.35;;;22.10;10.60;;;;;;5034976;28;20170;-91
2022/06/16 07:53:42;;;;;;;3.03;2.50;;;21.60;23.10;;;;;;5034978;28;20671;-86
2022/06/16 07:56:07;;;;;;;2.95;2.65;;;21.50;51.60;;;;;;5033956;28;20301;-86
2022/06/16 07:59:17;;;;;;;3.30;2.22;;;21.30;52.40;;;;;;5026523;28;20273;-86
2022/06/16 08:01:43;;;;;;;2.75;2.40;;;20.60;99.90;;;;;;5034631;28;20185;-85
2022/06/16 08:04:18;;;;;;;3.05;2.17;;;20.60;99.90;;;;;;5033277;28;20285;-87
2022/06/16 08:06:43;;;;;;;5.18;2.30;;;20.70;99.90;;;;;;5032871;28;20240;-86
2022/06/16 08:09:11;;;;;;;3.78;1.95;;;20.80;99.90;;;;;;5018362;28;20631;-86
2022/06/16 08:14:21;;;;;;;3.33;2.05;;;21.40;99.90;;;;;;5043461;28;20217;-86
2022/06/16 08:16:47;;;;;;;3.83;2.20;;;21.30;99.90;;;;;;5016734;28;20186;-87
2022/06/16 08:19:13;;;;;;;2.22;1.95;;;21.00;99.90;;;;;;5022881;28;20574;-88
2022/06/16 08:21:39;;;;;;;3.05;2.38;;;20.80;99.90;;;;;;5026228;28;20182;-85
2022/06/16 08:24:06;;;;;;;2.47;2.28;;;20.90;99.90;;;;;;5046387;28;20202;-85
2022/06/16 08:26:32;;;;;;;3.63;2.17;;;20.80;99.90;;;;;;5022328;28;20178;-85
2022/06/16 08:28:58;;;;;;;4.22;2.30;;;20.90;99.90;;;;;;5047474;28;20214;-86
2022/06/16 08:31:25;;;;;;;3.45;2.10;;;20.80;99.90;;;;;;5030102;28;20209;-85
2022/06/16 08:33:52;;;;;;;3.42;2.10;;;20.50;99.90;;;;;;5028444;28;20248;-85
2022/06/16 08:36:19;;;;;;;2.65;2.42;;;20.80;99.90;;;;;;5028635;28;20174;-84
2022/06/16 08:38:46;;;;;;;3.55;2.20;;;21.00;99.90;;;;;;5047443;28;20185;-86
2022/06/16 08:41:19;;;;;;;2.55;2.13;;;20.70;99.90;;;;;;5030043;28;20181;-85
2022/06/16 08:44:00;;;;;;;3.50;2.50;;;20.80;99.90;;;;;;5022147;28;20281;-85
2022/06/16 08:46:31;;;;;;;2.97;2.45;;;20.90;99.90;;;;;;5026394;28;20576;-84
2022/06/16 08:49:20;;;;;;;2.35;2.03;;;21.10;99.90;;;;;;5030169;28;20309;-87
2022/06/16 08:52:10;;;;;;;4.55;2.10;;;21.00;99.90;;;;;;5046289;28;20273;-85
2022/06/16 08:54:46;;;;;;;3.15;2.10;;;20.80;99.90;;;;;;5047159;28;20209;-86
2022/06/16 08:57:33;;;;;;;2.40;2.20;;;20.60;99.90;;;;;;5022521;28;20541;-86
2022/06/16 09:00:09;;;;;;;3.45;2.00;;;20.50;99.90;;;;;;5017883;28;20182;-87
2022/06/16 09:02:58;;;;;;;3.38;2.28;;;20.60;99.90;;;;;;5027822;28;20351;-85
2022/06/16 09:05:53;;;;;;;5.00;2.08;;;20.60;99.90;;;;;;5028558;28;20205;-86
2022/06/16 09:08:37;;;;;;;2.72;2.03;;;20.60;99.90;;;;;;5045641;28;20197;-86
2022/06/16 09:11:20;;;;;;;2.13;1.80;;;20.80;99.90;;;;;;5045702;28;20186;-85
2022/06/16 09:14:00;;;;;;;4.63;1.88;;;20.80;99.90;;;;;;5022174;28;20259;-85
2022/06/16 09:16:47;;;;;;;3.95;1.92;;;20.90;99.90;;;;;;5021024;28;20186;-85
2022/06/16 09:19:41;;;;;;;3.08;2.10;;;20.90;99.90;;;;;;5046663;28;20194;-86
2022/06/16 09:22:27;;;;;;;3.92;2.00;;;20.80;99.90;;;;;;5027554;28;20213;-84
2022/06/16 09:25:00;;;;;;;3.15;2.00;;;20.90;99.90;;;;;;5027503;28;20590;-86
2022/06/16 09:27:39;;;;;;;2.58;1.92;;;21.00;99.90;;;;;;5052100;28;20202;-85
2022/06/16 09:30:12;;;;;;;1.92;1.70;;;20.90;99.90;;;;;;5033527;28;20674;-85
2022/06/16 09:32:43;;;;;;;3.15;2.17;;;20.90;99.90;;;;;;5053020;28;20185;-86
2022/06/16 09:35:21;;;;;;;2.63;1.90;;;21.00;99.90;;;;;;5030998;28;20202;-85
2022/06/16 09:38:04;;;;;;;2.15;1.90;;;20.90;99.90;;;;;;5034107;28;20182;-85
2022/06/16 09:40:48;;;;;;;2.85;2.00;;;20.90;99.90;;;;;;5028500;28;20178;-86
2022/06/16 09:43:25;;;;;;;2.42;1.90;;;20.90;99.90;;;;;;5029655;28;20715;-86
2022/06/16 09:46:04;;;;;;;3.35;2.20;;;21.00;99.90;;;;;;5054453;28;20252;-86
2022/06/16 09:48:51;;;;;;;10.25;3.03;;;21.00;99.90;;;;;;5054814;28;20193;-85
2022/06/16 09:51:39;;;;;;;4.88;2.58;;;21.00;99.90;;;;;;5052302;28;20194;-86
2022/06/16 09:54:31;;;;;;;5.07;2.25;;;21.00;99.90;;;;;;5029390;28;20198;-87
2022/06/16 09:57:19;;;;;;;2.90;1.92;;;21.00;99.90;;;;;;5033038;28;20567;-86
2022/06/16 09:59:59;;;;;;;2.58;2.08;;;21.10;99.90;;;;;;5035307;28;20525;-85
2022/06/16 10:02:30;;;;;;;5.07;2.10;;;21.10;99.90;;;;;;5030134;28;20316;-85
2022/06/16 10:04:55;;;;;;;4.20;2.22;;;21.30;99.90;;;;;;5033540;28;20213;-86
2022/06/16 10:07:37;;;;;;;2.63;2.00;;;21.40;99.90;;;;;;5025477;28;20209;-85
2022/06/16 10:10:08;;;;;;;4.35;2.33;;;21.50;99.90;;;;;;5052301;28;20268;-85
2022/06/16 10:12:49;;;;;;;3.25;1.98;;;21.50;94.50;;;;;;5054992;28;20185;-86
2022/06/16 10:15:39;;;;;;;3.75;1.63;;;21.30;87.50;;;;;;5054934;28;20193;-86
2022/06/16 10:18:06;;;;;;;4.63;1.90;;;21.30;92.60;;;;;;5048825;28;20262;-86
2022/06/16 10:20:32;;;;;;;2.22;1.73;;;21.50;96.40;;;;;;5033853;28;20178;-86
2022/06/16 10:23:11;;;;;;;2.85;1.80;;;21.60;82.30;;;;;;5033396;28;20182;-87
2022/06/16 10:25:44;;;;;;;3.13;2.00;;;21.40;31.40;;;;;;5032811;28;20206;-86
2022/06/16 10:28:31;;;;;;;3.50;1.50;;;21.50;30.30;;;;;;5024001;28;20256;-87
2022/06/16 10:30:59;;;;;;;2.42;1.60;;;21.50;12.70;;;;;;5048339;28;20189;-86
2022/06/16 10:33:31;;;;;;;2.10;1.60;;;21.70;15.00;;;;;;5058501;23;20177;-67
2022/06/16 10:35:59;;;;;;;1.90;1.70;;;21.70;1.00;;;;;;5022522;28;20666;-67
2022/06/16 10:38:37;;;;;;;2.30;1.77;;;21.70;12.80;;;;;;5020945;28;20682;-66
2022/06/16 10:41:06;;;;;;;2.85;1.90;;;21.70;6.70;;;;;;5017664;28;20220;-68
2022/06/16 10:43:39;;;;;;;2.72;1.75;;;21.60;6.50;;;;;;5017981;28;20223;-65
2022/06/16 10:46:44;;;;;;;1.85;1.58;;;21.60;13.00;;;;;;5009815;28;20199;-66
2022/06/16 10:49:18;;;;;;;3.83;1.63;;;21.90;4.70;;;;;;4985583;28;20222;-68
2022/06/16 10:51:54;;;;;;;3.17;1.88;;;22.00;1.00;;;;;;5015227;28;20187;-64
2022/06/16 10:54:28;;;;;;;3.38;1.65;;;21.90;1.00;;;;;;5006600;28;20191;-66
2022/06/16 10:57:16;;;;;;;2.85;1.60;;;21.70;1.00;;;;;;5013837;28;20221;-68
2022/06/16 10:59:48;;;;;;;1.50;1.40;;;22.00;1.00;;;;;;5010355;28;20187;-65
2022/06/16 11:02:25;;;;;;;3.67;1.83;;;22.20;1.00;;;;;;4994329;28;20199;-66
2022/06/16 11:04:57;;;;;;;3.25;1.77;;;22.50;1.00;;;;;;4991470;28;20179;-66
2022/06/16 11:07:24;;;;;;;3.58;1.70;;;22.30;1.00;;;;;;5013468;28;20226;-70
2022/06/16 11:09:51;;;;;;;4.75;2.00;;;22.30;1.00;;;;;;5007821;28;20222;-68
2022/06/16 11:12:20;;;;;;;1.83;1.55;;;22.50;1.00;;;;;;5018707;28;20209;-65
2022/06/16 11:15:00;;;;;;;1.80;1.70;;;22.90;1.00;;;;;;5005401;28;20176;-66
2022/06/16 11:17:29;;;;;;;3.00;1.80;;;23.20;1.00;;;;;;5009881;28;20203;-66
2022/06/16 11:20:01;;;;;;;2.58;1.88;;;23.00;1.00;;;;;;5008101;28;20183;-67
2022/06/16 11:22:32;;;;;;;1.80;1.70;;;22.90;1.00;;;;;;5009484;28;20183;-65
2022/06/16 11:25:16;;;;;;;2.33;1.63;;;22.90;1.00;;;;;;5013926;28;20188;-66
2022/06/16 11:28:12;;;;;;;4.55;1.85;;;22.50;1.00;;;;;;5013032;28;20219;-66
2022/06/16 11:30:47;;;;;;;3.75;1.70;;;22.50;1.00;;;;;;5006939;28;20190;-67
2022/06/16 11:36:47;;;;;;;2.42;1.83;;;22.80;1.00;;;;;;5010661;28;20230;-66
2022/06/16 11:39:24;;;;;;;2.10;1.70;;;23.00;1.00;;;;;;5013482;28;20723;-65
2022/06/16 11:41:51;;;;;;;2.25;1.88;;;23.00;1.00;;;;;;5017576;28;20271;-65
2022/06/16 11:44:43;;;;;;;3.50;2.00;;;23.30;1.00;;;;;;5017980;28;20182;-66
2022/06/16 11:47:35;;;;;;;5.40;1.80;;;23.40;1.00;;;;;;5013938;28;20211;-65
2022/06/16 11:50:15;;;;;;;3.08;1.75;;;23.30;1.00;;;;;;5017831;28;20179;-67
2022/06/16 11:53:04;;;;;;;1.95;1.70;;;23.20;1.00;;;;;;5011749;28;20191;-66
2022/06/16 11:55:41;;;;;;;2.13;1.33;;;23.00;1.00;;;;;;5013122;28;20269;-65
2022/06/16 11:58:33;;;;;;;2.08;1.60;;;23.40;1.00;;;;;;5011584;28;20684;-66
2022/06/16 12:01:13;;;;;;;2.10;1.70;;;23.80;1.00;;;;;;5009340;28;20230;-65
2022/06/16 12:03:44;;;;;;;2.58;1.45;;;23.80;1.00;;;;;;5015661;28;20218;-65
2022/06/16 12:06:19;;;;;;;1.83;1.40;;;;;;;;;;5014264;28;20246;-65
2022/06/16 12:08:54;;;;;;;1.83;1.48;;;;;;;;;;5019039;28;20218;-67
2022/06/16 12:11:33;;;;;;;6.13;1.50;;;23.80;1.00;;;;;;5014980;28;20178;-66
2022/06/16 12:13:58;;;;;;;2.00;1.70;;;23.10;1.00;;;;;;5007199;28;20647;-67
2022/06/16 12:16:38;;;;;;;1.65;1.48;;;23.00;1.00;;;;;;5008170;28;20222;-65
2022/06/16 12:19:32;;;;;;;3.88;1.50;;;23.00;1.00;;;;;;5018277;28;20179;-65
2022/06/16 12:22:11;;;;;;;4.13;1.83;;;22.80;1.00;;;;;;5011433;28;20175;-65
2022/06/16 12:24:49;;;;;;;2.60;1.70;;;22.60;1.00;;;;;;5018630;28;20187;-65
2022/06/16 12:27:20;;;;;;;3.58;2.10;;;23.00;1.00;;;;;;5015459;28;20219;-67
2022/06/16 12:30:13;;;;;;;2.72;1.75;;;23.30;1.00;;;;;;5013734;28;20541;-66
2022/06/16 12:32:57;;;;;;;2.55;1.60;;;23.80;1.00;;;;;;5021519;28;20184;-67
2022/06/16 12:35:48;;;;;;;3.00;1.80;;;23.90;1.00;;;;;;4999119;28;20225;-67
2022/06/16 12:38:31;;;;;;;2.70;1.63;;;23.60;1.00;;;;;;5010883;28;20195;-66
2022/06/16 12:41:11;;;;;;;2.42;1.75;;;23.60;1.00;;;;;;5011163;28;20519;-68
2022/06/16 12:43:45;;;;;;;3.25;1.90;;;23.30;1.00;;;;;;5015055;28;20273;-64
2022/06/16 12:46:18;;;;;;;2.83;1.65;;;23.10;1.00;;;;;;5016586;28;20228;-64
2022/06/16 12:48:50;;;;;;;2.35;1.50;;;23.20;1.00;;;;;;4999079;28;20219;-64
2022/06/16 12:51:21;;;;;;;1.67;1.27;;;23.50;1.00;;;;;;5012638;28;20194;-64
2022/06/16 12:54:04;;;;;;;4.68;1.52;;;23.80;1.00;;;;;;5011791;28;20187;-65
2022/06/16 12:56:40;;;;;;;2.97;1.63;;;23.90;1.00;;;;;;5013711;28;20199;-68
2022/06/16 12:59:18;;;;;;;3.40;1.55;;;23.60;1.00;;;;;;4998031;28;20189;-66
2022/06/16 13:01:51;;;;;;;2.72;1.60;;;23.50;1.00;;;;;;5012794;28;20184;-70
2022/06/16 13:04:23;;;;;;;2.65;1.40;;;23.50;1.00;;;;;;5014692;28;20277;-65
2022/06/16 13:06:50;;;;;;;2.45;1.40;;;23.30;1.00;;;;;;5014240;28;20205;-65
2022/06/16 13:09:16;;;;;;;4.13;1.63;;;23.60;1.00;;;;;;5015921;28;20297;-66
2022/06/16 13:12:01;;;;;;;2.55;1.70;;;23.60;1.00;;;;;;5015138;28;20179;-65
2022/06/16 13:14:37;;;;;;;2.13;1.88;;;23.70;1.00;;;;;;5018206;28;20717;-67
2022/06/16 13:17:09;;;;;;;1.55;1.42;;;24.00;1.00;;;;;;5020841;28;20202;-68
2022/06/16 13:19:47;;;;;;;2.40;1.65;;;24.00;1.00;;;;;;5015907;28;20631;-65
2022/06/16 13:22:24;;;;;;;2.50;1.52;;;24.00;1.00;;;;;;5014383;28;20219;-66
2022/06/16 13:24:50;;;;;;;1.92;1.50;;;23.70;1.00;;;;;;4996945;28;20233;-66
2022/06/16 13:27:26;;;;;;;5.68;1.50;;;23.70;1.00;;;;;;5016115;28;20206;-63
2022/06/16 13:29:51;;;;;;;33.92;3.58;;;23.90;1.00;;;;;;5018473;28;20237;-65
2022/06/16 13:33:00;;;;;;;10.35;2.20;;;24.20;1.00;;;;;;5013988;28;20255;-64
2022/06/16 13:35:46;;;;;;;6.20;2.08;;;24.20;1.00;;;;;;5014915;28;20202;-66
2022/06/16 13:38:12;;;;;;;5.60;1.88;;;;;;;;;;5018437;28;20265;-68
2022/06/16 13:40:40;;;;;;;2.47;1.50;;;24.40;1.00;;;;;;5016692;28;20196;-66
2022/06/16 13:43:15;;;;;;;2.72;1.45;;;24.70;1.00;;;;;;5017888;28;20184;-65
2022/06/16 13:45:54;;;;;;;3.22;1.73;;;24.80;1.00;;;;;;5019446;28;20187;-66
2022/06/16 13:48:59;;;;;;;1.92;1.23;;;24.80;1.00;;;;;;5017989;28;20209;-65
2022/06/16 13:51:39;;;;;;;2.80;1.35;;;24.30;1.00;;;;;;5014139;28;20717;-65
2022/06/16 13:54:05;;;;;;;3.83;1.73;;;24.10;1.00;;;;;;4988487;28;20258;-65
2022/06/16 13:56:36;;;;;;;3.20;1.35;;;23.90;1.00;;;;;;5015496;28;20201;-67
2022/06/16 13:59:28;;;;;;;4.47;1.45;;;23.70;1.00;;;;;;5012731;28;20267;-66
2022/06/16 14:02:15;;;;;;;3.70;1.77;;;23.90;1.00;;;;;;5018866;28;20238;-64
2022/06/16 14:05:00;;;;;;;2.15;1.27;;;23.90;1.00;;;;;;5011792;28;20179;-67
2022/06/16 14:07:31;;;;;;;3.08;1.40;;;23.50;1.00;;;;;;5019879;28;20198;-65
2022/06/16 14:10:02;;;;;;;3.50;1.20;;;23.30;1.00;;;;;;5004836;28;20601;-65
2022/06/16 14:12:55;;;;;;;1.55;1.15;;;23.30;1.00;;;;;;5015955;28;20180;-65
2022/06/16 14:15:53;;;;;;;6.75;3.60;;;23.70;1.00;;;;;;5013191;28;20592;-65
2022/06/16 14:18:59;;;;;;;2.20;1.17;;;24.00;1.00;;;;;;5012978;28;20262;-64
2022/06/16 14:21:29;;;;;;;2.25;1.90;;;24.30;1.00;;;;;;5012834;28;20175;-66
2022/06/16 14:24:11;;;;;;;3.20;1.40;;;24.50;1.00;;;;;;5006784;28;20179;-67
2022/06/16 14:26:41;;;;;;;4.60;1.20;;;24.50;1.00;;;;;;5002034;28;20211;-65
2022/06/16 14:29:16;;;;;;;3.70;1.17;;;24.50;1.00;;;;;;5016295;28;20290;-65
2022/06/16 14:31:49;;;;;;;2.75;1.30;;;24.60;1.00;;;;;;5011841;28;20225;-65
2022/06/16 14:34:43;;;;;;;2.33;1.23;;;24.50;1.00;;;;;;4995198;28;20266;-67
2022/06/16 14:37:15;;;;;;;1.30;1.00;;;24.40;1.00;;;;;;5012024;28;20203;-64
2022/06/16 14:40:02;;;;;;;2.20;1.20;;;23.90;1.00;;;;;;5017523;28;20519;-64
2022/06/16 14:42:37;;;;;;;5.43;1.20;;;23.60;1.00;;;;;;5010992;28;20560;-66
2022/06/16 14:45:21;;;;;;;1.73;1.20;;;23.70;1.00;;;;;;5015594;28;20261;-65
2022/06/16 14:48:03;;;;;;;3.00;1.25;;;23.50;1.00;;;;;;5015738;28;20253;-67
2022/06/16 14:50:35;;;;;;;2.30;0.90;;;23.40;1.00;;;;;;5021259;28;20206;-65
2022/06/16 14:53:25;;;;;;;3.08;1.35;;;23.40;1.00;;;;;;5013684;28;20183;-66
2022/06/16 14:56:03;;;;;;;1.75;1.13;;;23.60;1.00;;;;;;5011299;28;20192;-66
2022/06/16 14:58:48;;;;;;;2.30;0.93;;;23.80;1.00;;;;;;5012293;28;20234;-67
2022/06/16 15:01:17;;;;;;;1.27;0.80;;;23.80;1.00;;;;;;5010677;28;20215;-66
2022/06/16 15:03:48;;;;;;;0.93;0.80;;;23.70;1.00;;;;;;5014040;28;20712;-66
2022/06/16 15:06:15;;;;;;;1.92;1.10;;;23.80;1.00;;;;;;5007452;28;20195;-66
2022/06/16 15:08:55;;;;;;;1.33;1.00;;;23.90;1.00;;;;;;5013693;28;21081;-67
2022/06/16 15:11:24;;;;;;;1.45;0.90;;;23.80;1.00;;;;;;5023658;28;20245;-65
2022/06/16 15:13:53;;;;;;;1.50;0.80;;;23.60;1.00;;;;;;5019768;28;20183;-67
2022/06/16 15:49:57;;;;;;;1.50;0.60;;;23.70;1.00;;;;;;5891518;23;20279;-87
2022/06/16 15:52:31;;;;;;;1.45;0.50;;;23.60;1.00;;;;;;5027533;28;20198;-89
2022/06/16 15:55:08;;;;;;;0.75;0.70;;;23.70;1.00;;;;;;5027175;28;20229;-87
2022/06/16 15:57:36;;;;;;;1.35;0.52;;;23.60;1.00;;;;;;5027628;28;20182;-87
2022/06/16 16:00:08;;;;;;;1.60;0.50;;;23.60;1.00;;;;;;5027614;28;20198;-86
2022/06/16 16:02:36;;;;;;;1.95;0.47;;;23.60;1.00;;;;;;5045329;28;20182;-88
2022/06/16 16:05:04;;;;;;;1.65;0.70;;;23.70;1.00;;;;;;5020653;28;20183;-88
2022/06/16 16:07:34;;;;;;;0.68;0.57;;;23.70;1.00;;;;;;5044906;28;20214;-86
2022/06/16 16:10:01;;;;;;;0.63;0.50;;;23.70;1.00;;;;;;5044300;28;20277;-87
2022/06/16 16:12:30;;;;;;;0.50;0.50;;;23.70;1.00;;;;;;5026178;28;20191;-85
2022/06/16 16:14:56;;;;;;;1.58;0.55;;;23.70;1.00;;;;;;5044349;28;20178;-85
2022/06/16 16:17:41;;;;;;;0.75;0.52;;;23.70;1.00;;;;;;5026411;28;20640;-85
2022/06/16 16:20:08;;;;;;;0.75;0.40;;;23.70;1.00;;;;;;5034365;28;20198;-85
2022/06/16 16:22:35;;;;;;;0.80;0.63;;;23.60;1.00;;;;;;5015151;28;20206;-84
2022/06/16 16:25:01;;;;;;;0.88;0.70;;;23.60;1.00;;;;;;5025149;28;20183;-87
2022/06/16 16:27:28;;;;;;;1.27;0.70;;;23.60;1.00;;;;;;5022605;28;20214;-85
2022/06/16 16:29:56;;;;;;;0.80;0.50;;;23.60;1.00;;;;;;5026740;28;20214;-86
2022/06/16 16:32:31;;;;;;;2.83;0.70;;;23.40;1.00;;;;;;5029657;28;20185;-87
2022/06/16 16:34:59;;;;;;;0.80;0.60;;;23.20;1.00;;;;;;5028055;28;20169;-88
2022/06/16 16:37:26;;;;;;;1.52;0.70;;;23.20;1.00;;;;;;5022635;28;20185;-87
2022/06/16 16:40:04;;;;;;;2.28;0.60;;;23.20;1.00;;;;;;5026080;28;20213;-87
2022/06/16 16:45:25;;;;;;;0.80;0.57;;;23.10;1.00;;;;;;5044812;28;20200;-85
2022/06/16 16:48:02;;;;;;;1.10;0.60;;;23.00;1.00;;;;;;5025636;28;20209;-85
2022/06/16 16:50:28;;;;;;;1.63;0.68;;;23.00;1.00;;;;;;5020889;28;20209;-87
2022/06/16 16:52:54;;;;;;;1.20;0.70;;;22.90;1.00;;;;;;5017687;28;20213;-85
2022/06/16 16:55:22;;;;;;;2.15;0.60;;;22.90;1.00;;;;;;5024496;28;20745;-86
2022/06/16 16:57:48;;;;;;;1.73;0.55;;;22.70;1.00;;;;;;5024325;28;20200;-90
2022/06/16 17:00:21;;;;;;;1.33;0.50;;;22.80;1.00;;;;;;5023886;28;20198;-87
2022/06/16 17:02:46;;;;;;;0.95;0.40;;;22.70;1.00;;;;;;5044097;28;20178;-86
2022/06/16 17:05:13;;;;;;;0.75;0.50;;;22.70;1.00;;;;;;5025637;28;20174;-87
2022/06/16 17:07:39;;;;;;;1.15;0.70;;;22.70;1.00;;;;;;5026286;28;20671;-87
2022/06/16 17:10:12;;;;;;;1.80;0.73;;;22.60;1.00;;;;;;5044110;28;20668;-85
2022/06/16 17:12:38;;;;;;;1.10;0.93;;;22.40;1.00;;;;;;5043867;28;20179;-87
2022/06/16 17:15:05;;;;;;;1.05;0.70;;;22.40;1.00;;;;;;5025444;28;20213;-87
2022/06/16 17:17:33;;;;;;;1.05;0.50;;;22.30;1.00;;;;;;5025217;28;20541;-88
2022/06/16 17:20:00;;;;;;;0.63;0.52;;;22.30;1.00;;;;;;5020513;28;20202;-85
2022/06/16 17:22:26;;;;;;;1.13;0.50;;;22.30;1.00;;;;;;5025378;28;20286;-86
2022/06/16 17:24:54;;;;;;;1.73;0.70;;;22.20;1.00;;;;;;5026041;28;20268;-86
2022/06/16 17:27:20;;;;;;;0.90;0.60;;;22.20;1.00;;;;;;5043723;28;20201;-87
2022/06/16 17:29:46;;;;;;;0.88;0.80;;;22.20;1.00;;;;;;5019976;28;20210;-86
2022/06/16 17:32:15;;;;;;;2.00;0.70;;;;;;;;;;5020841;28;20265;-88
2022/06/16 17:34:46;;;;;;;0.50;0.50;;;22.10;1.00;;;;;;5012322;28;20189;-85
2022/06/16 17:37:35;;;;;;;3.38;0.60;;;22.00;1.00;;;;;;5025672;28;20182;-87
2022/06/16 17:40:01;;;;;;;0.73;0.60;;;21.90;1.00;;;;;;5025422;28;20241;-86
2022/06/16 17:42:27;;;;;;;0.60;0.60;;;21.80;1.00;;;;;;5025742;28;20197;-86
2022/06/16 17:44:53;;;;;;;1.13;0.80;;;21.80;1.00;;;;;;5025821;28;20647;-86
2022/06/16 17:47:19;;;;;;;0.65;0.52;;;21.70;1.00;;;;;;5029106;28;20181;-86
2022/06/16 17:49:44;;;;;;;0.82;0.57;;;21.70;1.00;;;;;;5022133;28;20627;-88
2022/06/16 18:00:19;;;;;;;1.35;0.70;;;21.50;1.00;;;;;;5047933;28;20266;-89
2022/06/16 18:02:45;;;;;;;1.33;0.70;;;21.40;1.00;;;;;;5020520;28;20190;-86
2022/06/16 18:05:11;;;;;;;0.73;0.70;;;21.40;1.00;;;;;;5047677;28;20202;-87
2022/06/16 18:07:38;;;;;;;1.00;0.60;;;21.40;1.00;;;;;;5047300;28;20233;-90
2022/06/16 18:10:12;;;;;;;1.27;0.75;;;21.30;1.00;;;;;;5028949;28;20674;-88
2022/06/16 18:12:38;;;;;;;1.50;0.70;;;21.20;1.00;;;;;;5029529;28;20186;-90
2022/06/16 18:15:12;;;;;;;1.58;0.80;;;21.20;1.00;;;;;;5023230;28;20613;-89
2022/06/16 18:17:38;;;;;;;1.83;0.70;;;21.00;1.00;;;;;;5022575;28;20267;-91
2022/06/16 18:20:04;;;;;;;0.88;0.68;;;20.90;1.00;;;;;;5029330;28;20194;-85
2022/06/16 18:22:35;;;;;;;1.50;0.88;;;20.80;1.00;;;;;;5029795;28;20328;-85
2022/06/16 18:25:04;;;;;;;0.70;0.68;;;20.70;1.00;;;;;;5028104;28;20595;-85
2022/06/16 18:27:33;;;;;;;0.88;0.63;;;20.50;1.00;;;;;;5017934;28;20533;-87
2022/06/16 18:30:00;;;;;;;1.60;0.80;;;20.40;1.00;;;;;;5047009;28;20838;-89
2022/06/16 18:32:26;;;;;;;0.90;0.70;;;20.30;1.00;;;;;;5030496;28;20749;-85
2022/06/16 18:34:52;;;;;;;1.85;1.00;;;20.20;1.00;;;;;;5029547;28;20269;-85
2022/06/16 18:37:18;;;;;;;1.90;0.88;;;20.20;1.00;;;;;;5029717;28;20206;-88
2022/06/16 18:39:44;;;;;;;1.55;0.82;;;20.10;1.00;;;;;;5046855;28;20271;-89
2022/06/16 18:59:41;;;;;;;2.47;0.77;;;19.50;1.00;;;;;;4956199;29;20243;-92
2022/06/16 19:02:19;;;;;;;0.80;0.75;;;19.40;1.00;;;;;;4975885;28;20705;-88
2022/06/16 19:04:46;;;;;;;1.75;1.05;;;19.30;1.00;;;;;;4977668;28;20228;-88
2022/06/16 19:07:12;;;;;;;2.55;0.80;;;19.30;8.20;;;;;;4974227;28;20635;-88
2022/06/16 19:09:38;;;;;;;1.10;0.70;;;19.20;15.00;;;;;;4978399;28;20302;-89
2022/06/16 19:12:18;;;;;;;1.95;0.80;;;19.10;17.70;;;;;;5030838;28;20185;-88
2022/06/16 19:14:45;;;;;;;1.35;0.80;;;19.10;25.10;;;;;;5026091;28;20718;-88
2022/06/16 19:17:16;;;;;;;1.73;0.70;;;19.10;27.10;;;;;;5031076;28;20170;-88
2022/06/16 19:19:45;;;;;;;0.80;0.73;;;19.00;41.00;;;;;;5036810;28;20206;-89
2022/06/16 19:22:12;;;;;;;1.05;1.00;;;19.00;50.50;;;;;;5026118;28;20563;-88
2022/06/16 19:24:41;;;;;;;2.45;1.00;;;18.90;86.40;;;;;;5023401;28;20181;-91
2022/06/16 19:27:11;;;;;;;1.33;0.88;;;18.80;99.90;;;;;;5034375;28;20181;-89
2022/06/16 19:29:38;;;;;;;2.67;0.70;;;18.80;99.90;;;;;;5035379;28;20218;-88
2022/06/16 19:32:04;;;;;;;2.40;1.08;;;18.70;99.90;;;;;;5026788;28;20186;-88
2022/06/16 19:34:31;;;;;;;0.90;0.90;;;18.60;99.90;;;;;;5030732;28;20178;-88
2022/06/16 19:37:01;;;;;;;1.70;0.70;;;18.60;99.90;;;;;;5034391;28;20186;-89
2022/06/16 19:39:27;;;;;;;2.67;0.90;;;18.50;99.90;;;;;;5032646;28;20786;-88
2022/06/16 19:41:56;;;;;;;1.40;0.90;;;18.40;99.90;;;;;;5033028;28;20193;-90
2022/06/16 19:53:04;;;;;;;0.70;0.70;;;18.10;99.90;;;;;;5052373;28;20201;-88
2022/06/16 19:55:29;;;;;;;0.90;0.85;;;18.00;99.90;;;;;;5035013;28;20190;-89
2022/06/16 19:57:55;;;;;;;1.60;0.82;;;17.90;99.90;;;;;;5034972;28;20256;-89
2022/06/16 20:00:25;;;;;;;1.40;0.80;;;17.90;99.90;;;;;;5052623;28;20701;-88
2022/06/16 20:02:55;;;;;;;1.30;1.00;;;17.80;99.90;;;;;;5051533;28;20216;-88
2022/06/16 20:05:22;;;;;;;1.63;0.90;;;17.70;99.90;;;;;;5034429;28;20185;-88
2022/06/16 20:07:48;;;;;;;1.80;0.90;;;17.60;1.00;;;;;;5033543;28;20209;-89
2022/06/16 20:10:15;;;;;;;1.77;1.13;;;17.60;99.90;;;;;;5027679;28;20206;-88
2022/06/16 20:12:41;;;;;;;1.23;0.88;;;17.50;99.90;;;;;;5034833;28;20185;-88
2022/06/16 20:15:13;;;;;;;1.15;0.93;;;17.40;1.00;;;;;;5034366;28;20182;-88
2022/06/16 20:17:38;;;;;;;1.60;1.00;;;17.40;99.90;;;;;;5033953;28;20582;-88
2022/06/16 20:20:05;;;;;;;2.13;1.05;;;17.40;99.90;;;;;;5028135;28;20205;-88
2022/06/16 20:22:36;;;;;;;2.45;0.90;;;17.30;99.90;;;;;;5052600;28;20663;-88
2022/06/16 20:25:04;;;;;;;2.15;1.00;;;17.20;99.90;;;;;;5033618;28;20201;-88
2022/06/16 20:27:33;;;;;;;1.80;0.90;;;17.20;99.90;;;;;;5034060;28;20189;-88
2022/06/16 20:30:00;;;;;;;2.25;1.10;;;17.20;99.90;;;;;;5028714;28;20213;-89
2022/06/16 20:32:26;;;;;;;0.95;0.73;;;17.10;99.90;;;;;;5032645;28;20232;-89
2022/06/16 20:34:52;;;;;;;1.17;0.85;;;17.00;99.90;;;;;;5029916;28;20791;-88
2022/06/16 20:37:17;;;;;;;1.02;0.82;;;16.90;1.00;;;;;;5031284;28;20185;-89
2022/06/16 20:39:43;;;;;;;1.02;0.77;;;16.80;99.90;;;;;;5033246;28;20198;-88
2022/06/16 20:42:12;;;;;;;2.13;0.90;;;16.80;1.00;;;;;;5026474;28;20177;-89
2022/06/16 20:45:00;;;;;;;1.08;0.80;;;16.80;99.90;;;;;;5033739;28;20185;-89
2022/06/16 20:47:27;;;;;;;2.65;1.08;;;16.70;1.00;;;;;;5031873;28;20175;-88
2022/06/16 20:49:53;;;;;;;1.95;1.10;;;16.70;1.00;;;;;;5032640;28;20312;-88
2022/06/16 20:52:20;;;;;;;2.25;0.88;;;16.60;99.90;;;;;;5051565;28;20194;-89
2022/06/16 20:54:48;;;;;;;1.70;1.00;;;16.50;1.00;;;;;;5032186;28;20674;-89
2022/06/16 21:02:51;;;;;;;1.38;0.75;;;16.30;1.00;;;;;;5051232;28;20196;-89
2022/06/16 21:05:21;;;;;;;1.25;0.80;;;16.30;1.00;;;;;;5029651;28;20682;-88
2022/06/16 21:07:47;;;;;;;0.85;0.80;;;16.20;1.00;;;;;;5028573;28;20207;-88
2022/06/16 21:10:23;;;;;;;2.33;0.80;;;16.10;1.00;;;;;;5032262;28;20921;-88
2022/06/16 21:12:50;;;;;;;1.02;0.88;;;16.00;1.00;;;;;;5033604;28;20184;-89
2022/06/16 21:15:17;;;;;;;1.00;0.90;;;16.00;1.00;;;;;;5033030;28;20185;-88
2022/06/16 21:17:45;;;;;;;4.47;0.90;;;16.00;1.00;;;;;;5033303;28;20261;-88
2022/06/16 21:20:20;;;;;;;1.65;1.02;;;15.90;1.00;;;;;;5035029;28;20362;-89
2022/06/16 21:22:46;;;;;;;1.90;0.95;;;16.00;1.00;;;;;;5038319;28;20238;-88
2022/06/16 21:25:18;;;;;;;2.03;0.80;;;15.90;1.00;;;;;;5038872;28;20202;-88
2022/06/16 21:27:43;;;;;;;1.63;0.93;;;15.90;99.90;;;;;;5038891;28;20789;-88
2022/06/16 21:30:11;;;;;;;5.15;1.00;;;15.80;99.90;;;;;;5057124;28;20284;-90